createdAt,value
2019-01-29T00:01:35.462Z,100142.10
2019-01-29T00:04:07.329Z,100145.66
2019-01-29T00:06:40.110Z,100144.12
2019-01-29T00:09:13.193Z,100153.95
2019-01-29T00:11:47.411Z,100157.88
2019-01-29T00:14:18.682Z,100156.16
2019-01-29T00:16:50.621Z,100147.22
2019-01-29T00:19:23.968Z,100152.84
2019-01-29T00:21:55.601Z,100147.23
2019-01-29T00:24:27.937Z,100151.41
2019-01-29T00:27:00.000Z,100144.50
2019-01-29T00:29:33.025Z,100154.06
2019-01-29T00:32:05.004Z,100151.11
2019-01-29T00:34:36.217Z,100146.89
2019-01-29T00:37:08.323Z,100152.05
2019-01-29T00:39:42.182Z,100155.86
2019-01-29T00:42:13.338Z,100153.80
2019-01-29T00:44:46.550Z,100159.84
2019-01-29T00:47:18.626Z,100157.23
2019-01-29T00:49:54.976Z,100159.70
2019-01-29T00:52:26.796Z,100169.98
2019-01-29T00:54:59.729Z,100176.27
2019-01-29T00:57:31.090Z,100169.52
2019-01-29T01:00:04.320Z,100169.69
2019-01-29T01:02:35.207Z,100169.93
2019-01-29T01:05:08.321Z,100173.06
2019-01-29T01:07:43.971Z,100173.98
2019-01-29T01:10:19.459Z,100175.47
2019-01-29T01:12:51.751Z,100178.36
2019-01-29T01:15:27.707Z,100175.13
2019-01-29T01:17:59.481Z,100185.81
2019-01-29T01:20:30.916Z,100172.70
2019-01-29T01:23:02.817Z,100183.20
2019-01-29T01:25:37.954Z,100184.30
2019-01-29T01:28:09.808Z,100185.46
2019-01-29T01:30:42.614Z,100189.09
2019-01-29T01:33:13.500Z,100192.48
2019-01-29T01:35:44.911Z,100198.45
2019-01-29T01:38:16.411Z,100200.02
2019-01-29T01:40:49.334Z,100199.78
2019-01-29T01:43:23.182Z,100201.09
2019-01-29T01:45:54.921Z,100201.41
2019-01-29T01:48:25.428Z,100210.70
2019-01-29T01:50:57.870Z,100212.74
2019-01-29T01:53:30.202Z,100214.20
2019-01-29T01:56:05.062Z,100211.94
2019-01-29T01:58:36.358Z,100211.00
2019-01-29T02:01:10.497Z,100210.36
2019-01-29T02:03:41.280Z,100205.41
2019-01-29T02:06:15.673Z,100206.09
2019-01-29T02:08:49.520Z,100213.27
2019-01-29T02:11:24.556Z,100207.57
2019-01-29T02:13:57.407Z,100210.43
2019-01-29T02:16:28.833Z,100211.77
2019-01-29T02:19:03.159Z,100200.25
2019-01-29T02:21:35.291Z,100224.38
2019-01-29T02:24:09.911Z,100230.00
2019-01-29T02:26:43.329Z,100229.30
2019-01-29T02:29:14.763Z,100227.48
2019-01-29T02:31:50.492Z,100223.11
2019-01-29T02:34:22.271Z,100229.16
2019-01-29T02:36:55.022Z,100229.09
2019-01-29T02:39:27.402Z,100234.84
2019-01-29T02:42:01.382Z,100230.00
2019-01-29T02:44:37.465Z,100236.67
2019-01-29T02:47:11.602Z,100241.58
2019-01-29T02:49:44.387Z,100234.70
2019-01-29T02:52:16.798Z,100237.22
2019-01-29T02:54:51.078Z,100236.40
2019-01-29T02:57:23.506Z,100237.81
2019-01-29T02:59:54.696Z,100235.11
2019-01-29T03:02:27.294Z,100233.34
2019-01-29T03:05:00.596Z,100238.72
2019-01-29T03:07:34.399Z,100235.88
2019-01-29T03:10:10.212Z,100244.60
2019-01-29T03:12:43.825Z,100243.45
2019-01-29T03:15:18.720Z,100238.28
2019-01-29T03:17:53.608Z,100244.13
2019-01-29T03:20:26.287Z,100249.34
2019-01-29T03:23:01.093Z,100245.36
2019-01-29T03:25:33.164Z,100247.07
2019-01-29T03:28:07.355Z,100247.95
2019-01-29T03:30:39.277Z,100245.52
2019-01-29T03:33:11.860Z,100249.41
2019-01-29T03:35:51.369Z,100243.46
2019-01-29T03:38:22.343Z,100246.67
2019-01-29T03:40:52.708Z,100245.89
2019-01-29T03:43:26.926Z,100245.84
2019-01-29T03:45:58.949Z,100254.19
2019-01-29T03:48:31.035Z,100259.75
2019-01-29T03:51:03.786Z,100254.26
2019-01-29T03:53:38.123Z,100264.41
2019-01-29T03:56:14.353Z,100264.92
2019-01-29T03:58:47.754Z,100267.14
2019-01-29T04:01:22.065Z,100256.69
2019-01-29T04:03:53.808Z,100255.92
2019-01-29T04:06:29.212Z,100262.39
2019-01-29T04:09:00.949Z,100260.48
2019-01-29T04:11:33.692Z,100265.73
2019-01-29T04:14:05.644Z,100261.23
2019-01-29T04:16:38.905Z,100270.14
2019-01-29T04:19:17.411Z,100266.26
2019-01-29T04:21:48.970Z,100265.66
2019-01-29T04:24:21.927Z,100260.45
2019-01-29T04:26:55.641Z,100259.27
2019-01-29T04:29:32.857Z,100262.02
2019-01-29T04:32:06.132Z,100262.30
2019-01-29T04:34:39.727Z,100265.98
2019-01-29T04:37:19.040Z,100263.80
2019-01-29T04:39:51.413Z,100269.42
2019-01-29T04:42:21.968Z,100263.02
2019-01-29T04:44:55.707Z,100268.97
2019-01-29T04:47:28.431Z,100272.81
2019-01-29T04:50:01.075Z,100269.06
2019-01-29T04:52:32.566Z,100268.72
2019-01-29T04:55:04.096Z,100259.97
2019-01-29T04:57:36.216Z,100261.92
2019-01-29T05:00:27.769Z,100261.69
2019-01-29T05:02:59.822Z,100253.27
2019-01-29T05:05:33.298Z,100253.28
2019-01-29T05:08:03.926Z,100256.89
2019-01-29T05:10:35.630Z,100251.56
2019-01-29T05:13:09.648Z,100254.88
2019-01-29T05:15:43.943Z,100247.02
2019-01-29T05:18:15.409Z,100242.41
2019-01-29T05:20:49.611Z,100245.90
2019-01-29T05:23:21.098Z,100241.09
2019-01-29T05:25:52.867Z,100243.44
2019-01-29T05:28:25.947Z,100249.57
2019-01-29T05:30:58.855Z,100245.56
2019-01-29T05:33:29.110Z,100247.78
2019-01-29T05:36:01.994Z,100243.01
2019-01-29T05:38:37.944Z,100248.05
2019-01-29T05:41:10.267Z,100241.48
2019-01-29T05:43:41.902Z,100252.19
2019-01-29T05:46:14.391Z,100252.14
2019-01-29T05:48:46.194Z,100245.45
2019-01-29T05:51:18.901Z,100246.45
2019-01-29T05:53:50.184Z,100248.59
2019-01-29T05:56:28.565Z,100244.09
2019-01-29T05:59:01.733Z,100247.84
2019-01-29T06:01:35.217Z,100244.02
2019-01-29T06:04:07.256Z,100243.44
2019-01-29T06:06:46.295Z,100232.61
2019-01-29T06:09:17.954Z,100235.57
2019-01-29T06:11:50.379Z,100232.41
2019-01-29T06:14:23.753Z,100236.53
2019-01-29T06:16:55.385Z,100225.90
2019-01-29T06:19:25.800Z,100226.60
2019-01-29T06:21:57.984Z,100227.22
2019-01-29T06:24:29.152Z,100231.00
2019-01-29T06:27:02.987Z,100233.63
2019-01-29T06:29:37.051Z,100231.53
2019-01-29T06:32:10.807Z,100231.44
2019-01-29T06:34:45.371Z,100237.16
2019-01-29T06:37:16.943Z,100238.08
2019-01-29T06:39:48.184Z,100238.66
2019-01-29T06:42:20.250Z,100244.95
2019-01-29T06:44:50.840Z,100241.87
2019-01-29T06:47:24.989Z,100246.59
2019-01-29T06:49:56.362Z,100250.47
2019-01-29T06:52:28.204Z,100245.79
2019-01-29T06:54:59.683Z,100247.30
2019-01-29T06:57:31.961Z,100241.26
2019-01-29T07:00:03.651Z,100250.49
2019-01-29T07:02:37.064Z,100253.14
2019-01-29T07:05:07.875Z,100252.56
2019-01-29T07:07:38.928Z,100255.03
2019-01-29T07:10:13.673Z,100253.05
2019-01-29T07:12:47.565Z,100261.09
2019-01-29T07:15:39.643Z,100257.86
2019-01-29T07:18:31.167Z,100263.66
2019-01-29T07:21:07.291Z,100263.72
2019-01-29T07:23:41.247Z,100263.75
2019-01-29T07:26:13.167Z,100265.41
2019-01-29T07:28:43.852Z,100265.34
2019-01-29T07:31:17.824Z,100262.23
2019-01-29T07:33:54.891Z,100261.75
2019-01-29T07:36:25.764Z,100269.10
2019-01-29T07:38:59.941Z,100262.58
2019-01-29T07:41:36.129Z,100264.26
2019-01-29T07:44:08.316Z,100262.05
2019-01-29T07:46:40.385Z,100265.00
2019-01-29T07:49:11.749Z,100266.88
2019-01-29T07:51:45.655Z,100267.59
2019-01-29T07:54:17.401Z,100262.39
2019-01-29T07:56:48.324Z,100263.55
2019-01-29T07:59:32.382Z,100259.64
2019-01-29T08:01:54.687Z,100256.16
2019-01-29T08:04:33.435Z,100254.30
2019-01-29T08:07:04.427Z,100256.98
2019-01-29T08:09:37.145Z,100253.09
2019-01-29T08:12:11.170Z,100255.75
2019-01-29T08:14:43.221Z,100252.20
2019-01-29T08:17:17.264Z,100246.98
2019-01-29T08:19:49.456Z,100246.78
2019-01-29T08:22:22.634Z,100252.61
2019-01-29T08:25:01.709Z,100250.28
2019-01-29T08:27:28.751Z,100255.30
2019-01-29T08:29:59.093Z,100253.61
2019-01-29T08:32:29.680Z,100251.14
2019-01-29T08:35:02.930Z,100248.38
2019-01-29T08:37:33.968Z,100254.52
2019-01-29T08:40:09.084Z,100251.41
2019-01-29T08:42:42.491Z,100248.36
2019-01-29T08:45:14.389Z,100253.28
2019-01-29T08:47:46.508Z,100246.53
2019-01-29T08:50:22.106Z,100244.02
2019-01-29T08:52:53.376Z,100244.16
2019-01-29T08:55:28.464Z,100237.34
2019-01-29T08:58:03.737Z,100240.20
2019-01-29T09:00:38.089Z,100231.09
2019-01-29T09:03:08.947Z,100230.14
2019-01-29T09:05:50.173Z,100234.08
2019-01-29T09:08:22.342Z,100232.03
2019-01-29T09:10:53.539Z,100232.55
2019-01-29T09:13:28.771Z,100228.07
2019-01-29T09:16:00.719Z,100227.22
2019-01-29T09:18:34.150Z,100228.00
2019-01-29T09:21:06.597Z,100227.05
2019-01-29T09:23:39.369Z,100224.59
2019-01-29T09:26:11.806Z,100219.22
2019-01-29T09:28:43.969Z,100220.98
2019-01-29T09:31:16.522Z,100220.18
2019-01-29T09:33:48.462Z,100219.78
2019-01-29T09:36:20.588Z,100214.59
2019-01-29T09:38:53.713Z,100209.13
2019-01-29T09:41:25.169Z,100210.17
2019-01-29T09:43:59.087Z,100204.47
2019-01-29T09:46:31.235Z,100199.17
2019-01-29T09:49:03.311Z,100197.20
2019-01-29T09:51:38.233Z,100199.71
2019-01-29T09:54:15.756Z,100200.11
2019-01-29T09:56:54.840Z,100202.09
2019-01-29T09:59:25.119Z,100202.77
2019-01-29T10:01:56.616Z,100196.48
2019-01-29T10:04:28.587Z,100193.64
2019-01-29T10:07:00.858Z,100192.44
2019-01-29T10:09:33.121Z,100188.38
2019-01-29T10:12:05.660Z,100188.33
2019-01-29T10:14:36.951Z,100184.77
2019-01-29T10:17:09.641Z,100175.44
2019-01-29T10:19:44.194Z,100175.05
2019-01-29T10:22:17.121Z,100166.36
2019-01-29T10:24:48.779Z,100157.48
2019-01-29T10:27:20.527Z,100160.13
2019-01-29T10:29:53.420Z,100155.36
2019-01-29T10:32:26.499Z,100153.80
2019-01-29T10:34:57.722Z,100148.52
2019-01-29T10:37:30.220Z,100147.61
2019-01-29T10:40:03.594Z,100138.48
2019-01-29T10:42:36.243Z,100144.97
2019-01-29T10:45:12.238Z,100142.19
2019-01-29T10:47:44.781Z,100142.74
2019-01-29T10:50:21.046Z,100136.09
2019-01-29T10:52:56.390Z,100140.38
2019-01-29T10:55:32.342Z,100128.80
2019-01-29T10:58:02.995Z,100131.08
2019-01-29T11:00:37.165Z,100131.16
2019-01-29T11:03:20.605Z,100127.89
2019-01-29T11:05:54.860Z,100112.23
2019-01-29T11:08:26.636Z,100107.45
2019-01-29T11:10:58.702Z,100107.33
2019-01-29T11:13:30.436Z,100104.48
2019-01-29T11:16:01.639Z,100106.90
2019-01-29T11:18:33.064Z,100096.84
2019-01-29T11:21:07.835Z,100101.77
2019-01-29T11:23:42.408Z,100090.88
2019-01-29T11:26:13.789Z,100080.46
2019-01-29T11:28:45.485Z,100090.20
2019-01-29T11:31:18.882Z,100083.68
2019-01-29T11:33:50.272Z,100085.03
2019-01-29T11:36:21.951Z,100079.97
2019-01-29T11:38:55.951Z,100064.69
2019-01-29T11:41:27.191Z,100069.91
2019-01-29T11:44:00.594Z,100068.53
2019-01-29T11:46:33.419Z,100062.95
2019-01-29T11:49:05.772Z,100051.33
2019-01-29T11:51:37.645Z,100046.99
2019-01-29T11:54:10.519Z,100040.11
2019-01-29T11:56:41.791Z,100036.52
2019-01-29T11:59:14.588Z,100034.19
2019-01-29T12:01:45.838Z,100028.62
2019-01-29T12:04:19.110Z,100030.59
2019-01-29T12:06:50.279Z,100023.01
2019-01-29T12:09:23.392Z,100017.70
2019-01-29T12:11:55.099Z,100020.67
2019-01-29T12:14:33.102Z,100014.38
2019-01-29T12:17:05.570Z,100006.06
2019-01-29T12:19:38.784Z,100013.75
2019-01-29T12:22:12.045Z,100012.69
2019-01-29T12:24:44.603Z,100006.00
2019-01-29T12:27:16.404Z,99998.34
2019-01-29T12:29:48.809Z,100003.08
2019-01-29T12:32:20.900Z,100005.45
2019-01-29T12:34:51.961Z,99988.52
2019-01-29T12:37:23.967Z,99975.70
2019-01-29T12:39:58.049Z,99978.08
2019-01-29T12:42:32.094Z,99971.89
2019-01-29T12:45:06.079Z,99973.03
2019-01-29T12:47:37.416Z,99966.77
2019-01-29T12:50:12.520Z,99971.05
2019-01-29T12:52:51.485Z,99964.14
2019-01-29T12:55:23.204Z,99964.19
2019-01-29T12:57:53.741Z,99958.41
2019-01-29T13:00:26.727Z,99953.72
2019-01-29T13:02:58.631Z,99955.39
2019-01-29T13:05:32.721Z,99943.23
2019-01-29T13:08:05.848Z,99950.03
2019-01-29T13:10:38.509Z,99937.03
2019-01-29T13:13:11.016Z,99915.80
2019-01-29T13:15:42.761Z,99926.83
2019-01-29T13:18:14.101Z,99934.66
2019-01-29T13:20:46.969Z,99926.91
2019-01-29T13:23:21.811Z,99920.31
2019-01-29T13:25:55.997Z,99926.70
2019-01-29T13:28:27.373Z,99923.01
2019-01-29T13:31:02.258Z,99915.48
2019-01-29T13:33:35.451Z,99920.11
2019-01-29T13:36:08.681Z,99909.95
2019-01-29T13:38:40.873Z,99909.36
2019-01-29T13:41:13.512Z,99910.27
2019-01-29T13:43:45.107Z,99910.92
2019-01-29T13:46:16.969Z,99903.23
2019-01-29T13:48:48.693Z,99901.14
2019-01-29T13:51:23.030Z,99894.61
2019-01-29T13:53:55.664Z,99895.27
2019-01-29T13:56:38.579Z,99884.28
2019-01-29T13:59:03.287Z,99882.16
2019-01-29T14:01:36.064Z,99883.32
2019-01-29T14:04:08.998Z,99881.20
2019-01-29T14:06:52.522Z,99866.02
2019-01-29T14:09:43.080Z,99870.44
2019-01-29T14:12:30.560Z,99861.02
2019-01-29T14:15:14.656Z,99873.28
2019-01-29T14:18:08.029Z,99865.52
2019-01-29T14:20:55.225Z,99857.88
2019-01-29T14:23:28.854Z,99861.80
2019-01-29T14:26:03.980Z,99855.42
2019-01-29T14:28:36.598Z,99856.24
2019-01-29T14:31:10.946Z,99850.86
2019-01-29T14:33:44.428Z,99855.72
2019-01-29T14:36:18.957Z,99855.25
2019-01-29T14:39:50.061Z,99858.18
2019-01-29T14:42:21.559Z,99840.44
2019-01-29T14:44:56.544Z,99844.91
2019-01-29T14:47:34.154Z,99832.87
2019-01-29T14:50:05.165Z,99834.94
2019-01-29T14:52:38.398Z,99829.86
2019-01-29T14:55:11.764Z,99828.53
2019-01-29T14:57:47.506Z,99829.55
2019-01-29T15:00:25.273Z,99829.32
2019-01-29T15:02:56.637Z,99826.55
2019-01-29T15:05:29.450Z,99820.06
2019-01-29T15:08:06.800Z,99821.81
2019-01-29T15:10:39.286Z,99825.27
2019-01-29T15:13:10.494Z,99816.41
2019-01-29T15:15:47.424Z,99804.96
2019-01-29T15:18:28.513Z,99810.63
2019-01-29T15:21:00.562Z,99800.75
2019-01-29T15:23:34.472Z,99802.95
2019-01-29T15:26:05.701Z,99796.70
2019-01-29T15:28:36.999Z,99793.99
2019-01-29T15:31:10.473Z,99784.49
2019-01-29T15:33:42.527Z,99781.98
2019-01-29T15:36:13.764Z,99779.15
2019-01-29T15:38:45.319Z,99779.91
2019-01-29T15:41:15.754Z,99775.04
2019-01-29T15:43:47.256Z,99770.08
2019-01-29T15:46:21.610Z,99767.36
2019-01-29T15:48:54.991Z,99762.97
2019-01-29T15:51:26.856Z,99763.70
2019-01-29T15:54:00.355Z,99759.34
2019-01-29T15:56:32.879Z,99749.52
2019-01-29T15:59:04.187Z,99746.33
2019-01-29T16:01:37.104Z,99738.67
2019-01-29T16:04:08.977Z,99738.04
2019-01-29T16:06:42.727Z,99728.83
2019-01-29T16:09:13.124Z,99732.67
2019-01-29T16:11:45.591Z,99733.44
2019-01-29T16:14:17.875Z,99735.41
2019-01-29T16:17:08.295Z,99731.80
2019-01-29T16:19:41.476Z,99724.44
2019-01-29T16:22:13.669Z,99722.70
2019-01-29T16:24:47.279Z,99711.06
2019-01-29T16:27:22.824Z,99718.56
2019-01-29T16:29:55.454Z,99721.56
2019-01-29T16:32:28.688Z,99716.57
2019-01-29T16:35:00.810Z,99709.67
2019-01-29T16:37:34.024Z,99704.61
2019-01-29T16:40:05.415Z,99703.22
2019-01-29T16:42:39.062Z,99696.72
2019-01-29T16:45:16.641Z,99693.22
2019-01-29T16:47:48.599Z,99691.72
2019-01-29T16:50:21.944Z,99684.73
2019-01-29T16:52:54.086Z,99677.97
2019-01-29T16:55:25.175Z,99688.31
2019-01-29T16:57:57.512Z,99670.95
2019-01-29T17:00:34.073Z,99667.67
2019-01-29T17:03:07.871Z,99656.75
2019-01-29T17:05:40.761Z,99659.47
2019-01-29T17:08:15.762Z,99656.19
2019-01-29T17:10:48.474Z,99654.05
2019-01-29T17:13:20.761Z,99645.89
2019-01-29T17:15:51.906Z,99643.41
2019-01-29T17:18:24.774Z,99644.55
2019-01-29T17:20:57.786Z,99640.16
2019-01-29T17:23:29.351Z,99638.14
2019-01-29T17:26:02.736Z,99630.94
2019-01-29T17:28:35.146Z,99633.13
2019-01-29T17:31:06.765Z,99627.41
2019-01-29T17:33:40.482Z,99622.53
2019-01-29T17:36:12.444Z,99623.75
2019-01-29T17:38:45.965Z,99620.87
2019-01-29T17:41:19.309Z,99618.45
2019-01-29T17:43:50.925Z,99603.56
2019-01-29T17:46:22.866Z,99601.75
2019-01-29T17:48:56.057Z,99596.13
2019-01-29T17:51:29.421Z,99594.61
2019-01-29T17:54:02.557Z,99593.14
2019-01-29T17:56:33.944Z,99580.93
2019-01-29T17:59:06.591Z,99580.52
2019-01-29T18:01:38.137Z,99574.36
2019-01-29T18:04:11.327Z,99578.06
2019-01-29T18:06:43.501Z,99569.01
2019-01-29T18:09:15.377Z,99565.68
2019-01-29T18:11:48.514Z,99555.92
2019-01-29T18:14:20.301Z,99556.69
2019-01-29T18:16:53.067Z,99552.33
2019-01-29T18:19:27.432Z,99545.63
2019-01-29T18:21:59.494Z,99542.88
2019-01-29T18:24:32.250Z,99530.66
2019-01-29T18:27:03.868Z,99535.92
2019-01-29T18:29:36.004Z,99527.19
2019-01-29T18:32:08.721Z,99522.19
2019-01-29T18:34:40.052Z,99520.75
2019-01-29T18:37:12.775Z,99517.32
2019-01-29T18:39:44.035Z,99513.14
2019-01-29T18:42:15.679Z,99508.95
2019-01-29T18:44:46.981Z,99509.86
2019-01-29T18:47:19.497Z,99507.09
2019-01-29T18:49:51.587Z,99496.56
2019-01-29T18:52:21.861Z,99494.94
2019-01-29T18:54:52.260Z,99492.75
2019-01-29T18:57:25.661Z,99493.70
2019-01-29T18:59:58.171Z,99485.48
2019-01-29T19:02:28.743Z,99480.77
2019-01-29T19:05:01.677Z,99482.63
2019-01-29T19:07:34.689Z,99471.39
2019-01-29T19:10:06.609Z,99473.27
2019-01-29T19:12:41.271Z,99463.01
2019-01-29T19:15:15.201Z,99467.37
2019-01-29T19:17:46.473Z,99460.98
2019-01-29T19:20:24.032Z,99458.48
2019-01-29T19:22:58.372Z,99456.36
2019-01-29T19:25:32.929Z,99454.45
2019-01-29T19:28:07.455Z,99450.05
2019-01-29T19:30:39.057Z,99447.00
2019-01-29T19:33:10.529Z,99445.19
2019-01-29T19:35:42.018Z,99447.49
2019-01-29T19:38:13.611Z,99446.63
2019-01-29T19:40:46.261Z,99443.94
2019-01-29T19:43:18.061Z,99441.38
2019-01-29T19:45:56.497Z,99434.83
2019-01-29T19:48:29.846Z,99431.26
2019-01-29T19:51:00.672Z,99426.01
2019-01-29T19:53:32.160Z,99422.11
2019-01-29T19:56:03.498Z,99417.38
2019-01-29T19:58:36.029Z,99423.77
2019-01-29T20:01:08.108Z,99415.45
2019-01-29T20:03:39.259Z,99412.20
2019-01-29T20:06:11.696Z,99404.56
2019-01-29T20:08:42.568Z,99408.36
2019-01-29T20:11:21.208Z,99400.06
2019-01-29T20:14:01.282Z,99399.16
2019-01-29T20:16:34.526Z,99394.00
2019-01-29T20:19:07.206Z,99390.20
2019-01-29T20:21:39.475Z,99388.40
2019-01-29T20:24:10.682Z,99385.94
2019-01-29T20:26:46.031Z,99376.19
2019-01-29T20:29:27.431Z,99372.20
2019-01-29T20:32:00.471Z,99371.00
2019-01-29T20:34:31.568Z,99365.55
2019-01-29T20:37:03.980Z,99361.17
2019-01-29T20:39:35.651Z,99362.77
2019-01-29T20:42:07.288Z,99349.59
2019-01-29T20:44:38.242Z,99352.45
2019-01-29T20:47:09.485Z,99354.01
2019-01-29T20:49:39.934Z,99352.03
2019-01-29T20:52:12.308Z,99340.45
2019-01-29T20:54:43.001Z,99338.27
2019-01-29T20:57:14.169Z,99343.52
2019-01-29T20:59:44.883Z,99337.23
2019-01-29T21:02:17.030Z,99332.41
2019-01-29T21:04:48.691Z,99330.85
2019-01-29T21:07:20.795Z,99320.80
2019-01-29T21:09:53.825Z,99324.34
2019-01-29T21:12:24.649Z,99317.83
2019-01-29T21:14:56.261Z,99317.00
2019-01-29T21:17:27.964Z,99311.44
2019-01-29T21:20:02.165Z,99313.08
2019-01-29T21:22:33.300Z,99307.72
2019-01-29T21:25:06.495Z,99299.98
2019-01-29T21:27:39.750Z,99298.98
2019-01-29T21:30:18.812Z,99292.72
2019-01-29T21:32:50.334Z,99288.39
2019-01-29T21:35:23.261Z,99285.42
2019-01-29T21:38:00.855Z,99287.24
2019-01-29T21:40:32.166Z,99284.67
2019-01-29T21:43:02.746Z,99277.41
2019-01-29T21:45:34.436Z,99280.84
2019-01-29T21:48:08.756Z,99278.47
2019-01-29T21:50:40.675Z,99269.08
2019-01-29T21:53:12.294Z,99266.34
2019-01-29T21:55:44.416Z,99266.58
2019-01-29T21:58:18.108Z,99259.08
2019-01-29T22:00:48.533Z,99254.41
2019-01-29T22:03:19.679Z,99250.22
2019-01-29T22:05:50.746Z,99242.88
2019-01-29T22:08:24.123Z,99241.48
2019-01-29T22:10:54.855Z,99238.88
2019-01-29T22:13:25.902Z,99239.05
2019-01-29T22:15:57.005Z,99236.83
2019-01-29T22:18:28.418Z,99219.20
2019-01-29T22:21:01.297Z,99225.97
2019-01-29T22:23:33.756Z,99212.32
2019-01-29T22:26:04.926Z,99208.91
2019-01-29T22:28:37.000Z,99211.83
2019-01-29T22:31:08.554Z,99195.79
2019-01-29T22:33:39.221Z,99199.41
2019-01-29T22:36:13.001Z,99198.43
2019-01-29T22:38:48.200Z,99189.76
2019-01-29T22:41:19.348Z,99191.20
2019-01-29T22:43:49.712Z,99172.11
2019-01-29T22:46:20.026Z,99171.75
2019-01-29T22:48:52.305Z,99167.33
2019-01-29T22:51:23.928Z,99167.67
2019-01-29T22:53:55.405Z,99164.58
2019-01-29T22:56:25.995Z,99161.70
2019-01-29T22:58:56.892Z,99150.66
2019-01-29T23:01:37.437Z,99152.81
2019-01-29T23:04:24.621Z,99151.52
2019-01-29T23:07:22.725Z,99145.65
2019-01-29T23:09:56.981Z,99135.81
2019-01-29T23:12:28.596Z,99131.72
2019-01-29T23:15:02.198Z,99129.20
2019-01-29T23:17:33.546Z,99125.98
2019-01-29T23:20:06.544Z,99117.06
2019-01-29T23:22:36.822Z,99121.16
2019-01-29T23:25:10.260Z,99101.48
2019-01-29T23:27:44.767Z,99103.58
2019-01-29T23:30:19.696Z,99091.27
2019-01-29T23:32:54.045Z,99091.63
2019-01-29T23:35:25.860Z,99090.14
2019-01-29T23:37:57.411Z,99081.91
2019-01-29T23:40:30.118Z,99073.27
2019-01-29T23:43:04.415Z,99064.67
2019-01-29T23:45:35.413Z,99061.98
2019-01-29T23:48:06.641Z,99056.63
2019-01-29T23:50:37.854Z,99058.73
2019-01-29T23:53:10.613Z,99050.61
2019-01-29T23:55:45.632Z,99049.58
2019-01-29T23:58:16.918Z,99035.77
